Terminal Aerodrome Forecast
Issued by NWS

Home | Current Version | Previous Version | Text Only | Print | Product List | Glossary On
Versions: 1 2 3 4 5 6 7 8 9 10 11 12 13 14 15
334
FTUS42 KTAE 120932 AAB
TAFVLD
TAF AMD
KVLD 120932Z 1210/1306 20003KT 3SM BR BKN025
      TEMPO 1210/1213 1SM BR
     FM121500 23006KT P6SM BKN020
     FM121700 24008G18KT P6SM SCT025=

USA.gov is the U.S. government's official web portal to all federal, state and local government web resources and services.